Tiempo atmosférico en la estación meteorológica de Molina De Aragón, Guadalajara (1056 m.)



Fecha
DESCASC
Temp. máxima en grados centígrados (hora)
DESCASC
Temp. mínima en grados centígrados (hora)
DESCASC
Temp. media en grados centígrados
DESCASC
Racha de viento máxima en m/sg (hora)
DESCASC
Velocidad máxima media en intervalos de 10 minutos(hora)
DESCASC
Precipitaciones diarias en mm
DESCASC
Precipitaciones de 00:00 a 06:00 en mm
DESCASC
Precipitaciones de 06:00 a 12:00 en mm
DESCASC
Precipitaciones de 12:00 a 18:00 en mm
DESCASC
Precipitaciones de 18:00 a 24:00 en mm
DESCASC
21-02-2019 17.5 (15:40) -5.8 (07:50) 5.8 5.28 (13:30) 2.78 (18:00) 0 0 0 0 0
20-02-2019 15.6 (15:30) -5.9 (08:00) 4.9 6.39 (15:00) 2.78 (18:10) 0 0 0 0 0
19-02-2019 15.7 (15:40) -5.3 (08:10) 5.2 6.67 (14:30) 2.5 (15:40) 0 0 0 0 0
18-02-2019 16.5 (16:10) -6.6 (08:10) 5 6.39 (17:40) 3.61 (17:40) 0 0 0 0 0
17-02-2019 17 (14:40) -9.1 (-00:0) 3.9 7.22 (16:20) 3.89 (18:10) 0 0 0 0 0
16-02-2019 18.2 (15:10) -6.5 (-00:0) 5.9 7.78 (19:30) 4.72 (19:30) 0 0 0 0 0
15-02-2019 18.2 (16:30) -6.9 (-00:0) 5.7 5.83 (15:20) 3.06 (15:40) 0 0 0 0 0
14-02-2019 18.1 (16:30) -6.8 (-00:0) 5.7 6.67 (14:20) 3.33 (14:10) 0 0 0 0 0
13-02-2019 17.4 (16:00) -6 (-00:0) 5.7 4.72 (17:00) 2.5 (17:10) 0 0 0 0 0
12-02-2019 15.3 (17:20) -5.2 (-00:0) 5.1 3.61 (12:20) 1.67 (18:00) 0 0 0 0 0
11-02-2019 10.5 (16:30) -1.8 (-00:0) 4.4 8.61 (15:30) 4.44 (13:50) 0.4 0.4 0 0 0
10-02-2019 11.1 (15:30) 3.5 (00:00) 7.3 12.22 (13:50) 6.11 (04:40) 0 0 0 0 0
09-02-2019 14.6 (15:20) -4.4 (-00:0) 5.1 7.78 (16:30) 4.72 (16:30) 0 0 0 0 0
08-02-2019 14.5 (15:50) -6.2 (-00:0) 4.2 9.17 (13:30) 4.72 (13:40) 0 0 0 0 0
07-02-2019 13.6 (15:30) -3.7 (-00:0) 5 6.67 (14:50) 3.33 (14:50) 0 0 0 0 0
06-02-2019 15.9 (15:30) -4.2 (-00:0) 5.8 5.56 (14:00) 3.33 (17:00) 0 0 0 0 0
05-02-2019 15.1 (16:10) -2.7 (-00:0) 6.2 6.39 (13:30) 3.06 (13:30) 0 0 0 0 0
04-02-2019 12.5 (16:00) -7.4 (-00:0) 2.5 6.39 (17:10) 3.33 (17:00) 0 0 0 0 0
03-02-2019 4.4 (14:00) -2.7 (-00:0) 0.9 11.67 (01:50) 5.28 (12:10) 0 0 0 0 0
02-02-2019 4 (15:00) -1.5 (-00:0) 1.3 13.61 (11:20) 6.11 (11:10) 0.8 0.8 0 0 0
01-02-2019 8.3 (00:10) 1 (00:00) 4.7 15.28 (17:40) 6.94 (00:30) 9.2 6.6 0.8 0.8 1
31-01-2019 9.4 (11:50) 2.6 (00:00) 6 16.11 (21:30) 8.33 (22:00) 2.4 2 0.2 0 0.2
30-01-2019 7.9 (15:20) 0.6 (00:00) 4.3 10.83 (15:30) 5.56 (15:50) 0.8 0 0 0 0.8
29-01-2019 7 (15:20) -2.1 (-00:0) 2.5 12.22 (14:10) 6.11 (14:20) 0.7 0 0 0.6 0.1
28-01-2019 8 (14:10) -1.2 (-00:0) 3.4 13.89 (14:50) 6.11 (14:40) 0 0 0 0 0
27-01-2019 8.6 (16:00) -4.3 (-00:0) 2.2 13.61 (14:40) 6.39 (11:40) 0 0 0 0 0
26-01-2019 15.2 (15:40) -5 (-00:0) 5.1 5.83 (15:40) 3.06 (15:50) 0 0 0 0 0
25-01-2019 11.7 (16:20) 2.9 (00:00) 7.3 11.39 (11:50) 4.72 (11:30) 0 0 0 0 0
24-01-2019 7 (13:50) 3.8 (00:00) 5.4 15 (03:00) 6.39 (05:00) 0.2 0 0.2 0 0

Gráficas

Temp. máximas Temp. mínimas Temp. medias Precipitaciones Rachas de viento máximas Velocidades máximas media en intervalos de 10 minutos

Datos horarios

Fecha y hora oficial Temperatura (ºC) Velocidad del viento (km/h) Dirección del viento Racha (km/h) Dirección de racha Precipitación (mm) Presión (hPa) Tendencia (hPa) Humedad (%)
2019-02-22 23:00:00 -0.5 3 Este 5 Nordeste 0 908.6 0.6 62
2019-02-22 22:00:00 1.5 2 Este 5 Este 0 908.6 1.1 54
2019-02-22 21:00:00 4.6 3 Este 5 Sudoeste 0 908.3 1.2 44
2019-02-22 20:00:00 9.7 3 Sudoeste 9 Oeste 0 908 0.9 32
2019-02-22 19:00:00 13.7 4 Oeste 15 Oeste 0 907.5 0.8 21
2019-02-22 18:00:00 17.1 9 Oeste 19 Oeste 0 907.1 0.1 19
2019-02-22 17:00:00 19.4 8 Oeste 18 Noroeste 0 907.1 -0.6 13
2019-02-22 16:00:00 20 6 Oeste 15 Oeste 0 906.7 -1.9 16
2019-02-22 15:00:00 19.2 4 Oeste 14 Noroeste 0 907 -2.4 14
2019-02-22 14:00:00 17.8 4 Oeste 15 Oeste 0 907.7 -2.5 19
2019-02-22 13:00:00 15.6 3 Oeste 9 Noroeste 0 908.6 -1.9 26
2019-02-22 12:00:00 10.2 3 Sudoeste 6 Sur 0 909.4 -1.1 46
2019-02-22 11:00:00 4.7 3 Sudoeste 6 Sur 0 910.2 0.2 60
2019-02-22 10:00:00 -0.3 0 Calma 3 Sur 0 910.5 0.4 77
2019-02-22 09:00:00 -5.6 2 Sudeste 4 Sur 0 910.5 0.6 90
2019-02-22 08:00:00 -6.5 2 Este 4 Este 0 910 0.1 87
2019-02-22 07:00:00 -6.4 0 Calma 3 Nordeste 0 910.1 0.1 86
2019-02-22 06:00:00 -5.6 2 Este 5 Este 0 909.9 -0.2 85
2019-02-22 05:00:00 -5.2 0 Calma 5 Este 0 909.9 0 85
2019-02-22 04:00:00 -4.3 4 Este 7 Este 0 910 0.2 83
2019-02-22 03:00:00 -4 3 Este 4 Este 0 910.1 0.7 83
2019-02-22 02:00:00 -3.1 0 Calma 4 Este 0 909.9 0.6 81
2019-02-22 01:00:00 -2.4 2 Este 5 Nordeste 0 909.8 1 78
2019-02-22 00:00:00 -1.3 2 Este 4 Este 0 909.4 1.3 75
2019-02-21 23:00:00 0.1 3 Este 5 Este 0 909.3 1.9 70
2019-02-21 22:00:00 1.9 2 Este 7 Este 0 908.8 2.4 63
2019-02-21 21:00:00 3.9 3 Este 7 Sudeste 0 908.1 2.4 56
2019-02-21 20:00:00 7.1 0 Calma 6 Sudoeste 0 907.4 2 47
2019-02-21 19:00:00 12.2 2 Sudoeste 11 Oeste 0 906.4 1.1 34
2019-02-21 18:00:00 15.1 10 Este 15 Este 0 905.7 0.5 27
2019-02-21 17:00:00 17.4 7 Norte 18 Norte 0 905.4 0 30
2019-02-21 16:00:00 17.1 5 Nordeste 18 Norte 0 905.3 -0.6 31
2019-02-21 15:00:00 17.1 6 Norte 16 Norte 0 905.2 -1.1 33
2019-02-21 14:00:00 16 4 Sudoeste 19 Nordeste 0 905.4 -1.2 33
2019-02-21 13:00:00 14.5 6 Este 14 Este 0 905.9 -0.9 34
2019-02-21 12:00:00 10.1 3 Sudoeste 5 Oeste 0 906.3 -0.2 59
2019-02-21 11:00:00 4.6 2 Sudoeste 5 Sudeste 0 906.6 0.9 72
2019-02-21 10:00:00 -0.1 2 Sudeste 4 Sur 0 906.8 1.5 85
2019-02-21 09:00:00 -4.9 0 Calma 3 Sur 0 906.5 1.3 93
2019-02-21 08:00:00 -5.7 0 Calma 3 Nordeste 0 905.7 0.7 90
2019-02-21 07:00:00 -5.4 0 Calma 3 Este 0 905.3 0.4 89
2019-02-21 06:00:00 -4.7 2 Este 3 Este 0 905.2 0.3 89
2019-02-21 05:00:00 -4.2 2 Este 3 Sudeste 0 905 0.3 88
2019-02-21 04:00:00 -3.5 0 Calma 4 Este 0 904.9 0.4 88
2019-02-21 03:00:00 -2.9 0 Calma 5 Este 0 904.9 0.8 87
2019-02-21 02:00:00 -2.2 0 Calma 3 Este 0 904.7 0.8 87
2019-02-21 01:00:00 -1.2 0 Calma 5 Este 0 904.5 1.1 84
2019-02-21 00:00:00 0.2 0 Calma 5 Sudeste 0 904.1 1.3 80
2019-02-20 23:00:00 1.9 2 Este 6 Este 0 903.9 1.5 75
2019-02-20 22:00:00 4.4 3 Sudeste 9 Oeste 0 903.4 1.7 67
2019-02-20 21:00:00 7 2 Nordeste 9 Noroeste 0 902.8 1.7 61
2019-02-20 20:00:00 9.5 5 Noroeste 10 Noroeste 0 902.4 1.6 51
2019-02-20 19:00:00 12 5 Oeste 19 Oeste 0 901.7 1 43
2019-02-20 18:00:00 13.8 9 Oeste 18 Oeste 0 901.1 0.2 37
2019-02-20 17:00:00 15.1 7 Sudoeste 16 Oeste 0 900.8 -0.5 32
2019-02-20 16:00:00 15.4 7 Oeste 17 Oeste 0 900.7 -1 35
2019-02-20 15:00:00 15.1 9 Oeste 23 Oeste 0 900.9 -1.2 34
2019-02-20 14:00:00 14.7 5 Noroeste 17 Oeste 0 901.3 -0.7 33
2019-02-20 13:00:00 12.9 4 Sur 10 Oeste 0 901.7 -0.4 41
2019-02-20 12:00:00 9 3 Sudoeste 5 Oeste 0 902.1 0.6 55
2019-02-20 11:00:00 3.7 3 Oeste 4 Oeste 0 902 1.2 69
2019-02-20 10:00:00 -1 0 Calma 4 Sur 0 902.1 1.8 88
2019-02-20 09:00:00 -4.9 0 Calma 4 Este 0 901.5 1.3 92
2019-02-20 08:00:00 -5.8 0 Calma 4 Este 0 900.8 0.7 89
2019-02-20 07:00:00 -5.5 2 Este 3 Sudeste 0 900.3 0.2 90
2019-02-20 06:00:00 -5.2 0 Calma 4 Este 0 900.2 0 89
2019-02-20 05:00:00 -4.8 0 Calma 3 Sudeste 0 900.1 0 89
2019-02-20 04:00:00 -4.4 2 Este 4 Este 0 900.1 0.2 89
2019-02-20 03:00:00 -3.9 0 Calma 4 Nordeste 0 900.2 0.3 86
2019-02-20 02:00:00 -3.1 0 Calma 4 Este 0 900.1 0.5 86
2019-02-20 01:00:00 -2.2 2 Este 6 Este 0 899.9 0.8 85
2019-02-20 00:00:00 -1.2 0 Calma 6 Sudeste 0 899.9 1.2 81
2019-02-19 23:00:00 -0.1 0 Calma 9 Este 0 899.6 1.4 77
2019-02-19 22:00:00 1.3 4 Este 6 Este 0 899.1 1.7 71
2019-02-19 21:00:00 3.1 4 Este 7 Sudoeste 0 898.7 1.8 63
2019-02-19 20:00:00 4.6 0 Calma 6 Sudoeste 0 898.2 1.2 54
2019-02-19 19:00:00 7.8 0 Calma 5 Este 0 897.4 0.4 42
2019-02-19 18:00:00 11.3 4 Nordeste 15 Este 0 896.9 -0.2 36
2019-02-19 17:00:00 12.9 6 Nordeste 18 Norte 0 897 -0.7 36
2019-02-19 16:00:00 14.8 8 Norte 19 Norte 0 897 -1.5 33
2019-02-19 15:00:00 15 7 Norte 24 Sudoeste 0 897.1 -2 33
2019-02-19 14:00:00 14 4 Nordeste 14 Norte 0 897.7 -1.5 34
2019-02-19 13:00:00 11.8 5 Sur 9 Sur 0 898.5 -0.9 36
2019-02-19 12:00:00 7.8 3 Oeste 8 Oeste 0 899.1 -0.2 52
2019-02-19 11:00:00 2.9 3 Sudoeste 5 Sudoeste 0 899.2 0.6 69
2019-02-19 10:00:00 -1 0 Calma 4 Este 0 899.4 1 81
2019-02-19 09:00:00 -4.7 0 Calma 5 Sudeste 0 899.3 1 89
2019-02-19 08:00:00 -5.1 3 Este 4 Sudeste 0 898.6 0.3 88
2019-02-19 07:00:00 -4.9 2 Sur 5 Este 0 898.4 -0.1 87
2019-02-19 06:00:00 -4.7 2 Este 5 Sur 0 898.3 -0.5 87
2019-02-19 05:00:00 -4.5 2 Este 5 Sudeste 0 898.3 -0.5 86
2019-02-19 04:00:00 -4.2 3 Sudeste 5 Sudeste 0 898.5 -0.1 84
2019-02-19 03:00:00 -3.5 2 Este 4 Este 0 898.8 0.4 82
2019-02-19 02:00:00 -2.8 3 Este 4 Este 0 898.8 0.5 80
2019-02-19 01:00:00 -2.1 0 Calma 6 Sudeste 0 898.6 0.4 75
2019-02-19 00:00:00 -1.3 0 Calma 4 Sur 0 898.4 0.7 70
2019-02-18 23:00:00 -0.1 2 Nordeste 6 Sudeste 0 898.3 1 66
2019-02-18 22:00:00 1.3 2 Este 10 Sudeste 0 898.2 1.7 61
2019-02-18 21:00:00 3.1 2 Este 7 Sudeste 0 897.7 2 55
2019-02-18 20:00:00 6 3 Este 6 Sudoeste 0 897.3 1.9 46
2019-02-18 19:00:00 9.9 4 Sur 14 Sudoeste 0 896.5 1 34
2019-02-18 18:00:00 13.2 9 Oeste 23 Sudoeste 0 895.7 -0.5 28
2019-02-18 17:00:00 15.8 6 Sur 18 Sudoeste 0 895.4 -1.5 22
2019-02-18 16:00:00 16.3 6 Norte 17 Nordeste 0 895.5 -2.2 25
2019-02-18 15:00:00 16.2 7 Norte 19 Nordeste 0 896.2 -2.2 25
2019-02-18 14:00:00 15.5 10 Norte 18 Nordeste 0 896.9 -1.9 28
2019-02-18 13:00:00 13.8 5 Sur 10 Sur 0 897.7 -1.4 24
2019-02-18 12:00:00 10 3 Sur 6 Sudeste 0 898.4 -0.6 36
2019-02-18 11:00:00 4.3 3 Oeste 8 Noroeste 0 898.8 0.3 53
2019-02-18 10:00:00 -1.4 2 Sur 5 Sur 0 899.1 0.8 72
2019-02-18 09:00:00 -5.7 2 Sudeste 5 Este 0 899 0.9 86
2019-02-18 08:00:00 -6.5 0 Calma 4 Este 0 898.5 0.5 83
2019-02-18 07:00:00 -6.2 2 Este 4 Este 0 898.3 -0.1 83
2019-02-18 06:00:00 -5.9 0 Calma 3 Nordeste 0 898.1 -0.6 82
2019-02-18 05:00:00 -5.4 2 Sudeste 4 Este 0 898 -1 81
2019-02-18 04:00:00 -4.8 2 Sudeste 5 Este 0 898.4 -0.9 78
2019-02-18 03:00:00 -4.1 0 Calma 4 Sudeste 0 898.7 -1 75
2019-02-18 02:00:00 -3.7 0 Calma 5 Sur 0 899 -0.7 74
2019-02-18 01:00:00 -2.9 0 Calma 4 Este 0 899.3 -0.4 70
2019-02-18 00:00:00 -1.9 2 Nordeste 5 Sur 0 899.7 0.2 66
2019-02-17 23:00:00 -0.8 3 Nordeste 8 Sudeste 0 899.7 0.6 60
2019-02-17 22:00:00 1.3 0 Calma 5 Este 0 899.7 0.9 51
2019-02-17 21:00:00 3.8 4 Norte 13 Este 0 899.5 1 44
2019-02-17 20:00:00 6.5 5 Sur 11 Sur 0 899.1 0.3 35
2019-02-17 19:00:00 10.4 5 Sur 21 Sur 0 898.8 -0.3 27
2019-02-17 18:00:00 13.9 13 Sur 24 Sudoeste 0 898.5 -1.1 19
2019-02-17 17:00:00 16 12 Sur 26 Sudoeste 0 898.8 -1.6 19
2019-02-17 16:00:00 16.6 11 Sudoeste 22 Sudoeste 0 899.1 -2.3 17
2019-02-17 15:00:00 16.9 11 Sur 22 Sur 0 899.6 -2.8 17
2019-02-17 14:00:00 16.6 8 Sur 19 Sur 0 900.4 -2.6 13
2019-02-17 13:00:00 14.1 5 Este 12 Este 0 901.4 -2 17
2019-02-17 12:00:00 8.4 3 Sudoeste 6 Oeste 0 902.4 -1.2 35
2019-02-17 11:00:00 2.5 2 Sudeste 8 Sudeste 0 903 -0.4 43
2019-02-17 10:00:00 -3.2 3 Sudoeste 6 Sur 0 903.4 0.1 64
2019-02-17 09:00:00 -8.1 0 Calma 6 Sur 0 903.6 0.4 81
2019-02-17 08:00:00 -9 3 Sur 6 Sudeste 0 903.4 0.3 81
2019-02-17 07:00:00 -8.8 0 Calma 5 Sudeste 0 903.3 0 80
2019-02-17 06:00:00 -8.4 0 Calma 4 Este 0 903.2 -0.4 79
2019-02-17 05:00:00 -7.9 0 Calma 4 Sudeste 0 903.1 -0.8 76
2019-02-17 04:00:00 -7.3 0 Calma 4 Nordeste 0 903.3 -0.7 74
2019-02-17 03:00:00 -6.6 0 Calma 5 Este 0 903.6 -0.5 72
2019-02-17 02:00:00 -5.7 0 Calma 4 Este 0 903.9 -0.3 69
2019-02-17 01:00:00 -4.6 2 Este 5 Sudeste 0 904 -0.3 63
2019-02-17 00:00:00 -3.5 0 Calma 5 Sudeste 0 904.1 0 59
2019-02-16 23:00:00 -2.1 3 Este 7 Sudeste 0 904.2 0.5 52
2019-02-16 22:00:00 -0.2 3 Este 6 Este 0 904.3 1.3 47
2019-02-16 21:00:00 3.2 0 Calma 14 Este 0 904.1 1.5 35
2019-02-16 20:00:00 7.6 6 Este 28 Sur 0 903.7 1.1 22
2019-02-16 19:00:00 10.8 9 Sur 22 Sur 0 903 0.3 17
2019-02-16 18:00:00 14.2 9 Sudeste 22 Sudeste 0 902.6 -0.5 12
2019-02-16 17:00:00 16.6 10 Sudeste 28 Sudeste 0 902.6 -1.3 13
2019-02-16 16:00:00 17.8 9 Sudeste 22 Sudeste 0 902.7 -2.1 12
2019-02-16 15:00:00 17.9 6 Sur 15 Sur 0 903.1 -2.5 13
2019-02-16 14:00:00 16.2 8 Oeste 14 Oeste 0 903.9 -1.9 25
2019-02-16 13:00:00 14 2 Sudoeste 10 Sudoeste 0 904.8 -1.1 25
2019-02-16 12:00:00 9.2 4 Sudoeste 6 Sudoeste 0 905.6 -0.3 52
2019-02-16 11:00:00 3.6 5 Oeste 10 Oeste 0 905.8 0.4 74
2019-02-16 10:00:00 -1.7 3 Sudoeste 6 Sudoeste 0 905.9 0.9 90
2019-02-16 09:00:00 -5.7 2 Sur 4 Sudoeste 0 905.9 0.8 93
2019-02-16 08:00:00 -6.4 2 Este 4 Este 0 905.4 0.5 90
2019-02-16 07:00:00 -6 2 Este 6 Sudeste 0 905 -0.2 90
2019-02-16 06:00:00 -5.7 0 Calma 4 Sudeste 0 905.1 -0.3 89
2019-02-16 05:00:00 -5.2 0 Calma 4 Este 0 904.9 -0.6 89
2019-02-16 04:00:00 -4.6 0 Calma 4 Este 0 905.2 -0.4 89
2019-02-16 03:00:00 -4 0 Calma 3 Este 0 905.4 -0.1 88
2019-02-16 02:00:00 -3.2 3 Este 5 Sudeste 0 905.5 0.1 88
2019-02-16 01:00:00 -2.6 2 Este 6 Este 0 905.6 0.5 84
2019-02-16 00:00:00 -1.5 3 Este 5 Este 0 905.5 0.7 83
2019-02-15 23:00:00 -0.2 0 Calma 7 Este 0 905.4 0.7 77
2019-02-15 22:00:00 1.3 3 Este 5 Este 0 905.1 0.9 71
2019-02-15 21:00:00 3.9 2 Este 7 Este 0 904.8 1.1 60
2019-02-15 20:00:00 7.1 3 Este 7 Nordeste 0 904.7 0.9 51
2019-02-15 19:00:00 10.2 0 Calma 9 Norte 0 904.2 0.4 35
2019-02-15 18:00:00 14.3 5 Nordeste 17 Norte 0 903.7 -0.5 24
2019-02-15 17:00:00 17.3 8 Nordeste 18 Norte 0 903.8 -0.9 16
2019-02-15 16:00:00 17.8 8 Nordeste 21 Norte 0 903.8 -1.6 17
2019-02-15 15:00:00 17.3 9 Norte 19 Norte 0 904.2 -2.1 18
2019-02-15 14:00:00 16.2 9 Norte 19 Nordeste 0 904.7 -2 30
2019-02-15 13:00:00 13.9 7 Norte 14 Norte 0 905.4 -1.5 40
2019-02-15 12:00:00 8.3 3 Oeste 6 Oeste 0 906.3 -0.5 48
2019-02-15 11:00:00 2.6 3 Oeste 5 Sudoeste 0 906.7 0.1 60
2019-02-15 10:00:00 -2.1 2 Sudoeste 4 Sudoeste 0 906.9 0.5 80
2019-02-15 09:00:00 -6.2 2 Sudeste 4 Sur 0 906.8 0.4 90
2019-02-15 08:00:00 -6.8 0 Calma 5 Sudeste 0 906.6 0.2 88
2019-02-15 07:00:00 -6.6 0 Calma 3 Este 0 906.4 -0.1 88
2019-02-15 06:00:00 -6.2 0 Calma 3 Nordeste 0 906.4 -0.5 87
2019-02-15 05:00:00 -5.6 0 Calma 5 Sudeste 0 906.4 -0.7 87
2019-02-15 04:00:00 -4.9 2 Sudeste 3 Este 0 906.5 -0.6 85
2019-02-15 03:00:00 -4.4 0 Calma 5 Este 0 906.9 -0.2 83
2019-02-15 02:00:00 -3.6 3 Nordeste 4 Nordeste 0 907.1 0 80
2019-02-15 01:00:00 -2.5 2 Sudeste 5 Este 0 907.1 0.1 77
2019-02-15 00:00:00 -1.8 2 Este 5 Este 0 907.1 0.4 74
2019-02-14 23:00:00 -0.6 0 Calma 5 Sudeste 0 907.1 0.8 69
2019-02-14 22:00:00 1 3 Este 6 Sudeste 0 907 1.2 64
2019-02-14 21:00:00 3.1 2 Este 4 Este 0 906.7 1.4 57
2019-02-14 20:00:00 6.9 0 Calma 6 Sur 0 906.3 0.8 43
2019-02-14 19:00:00 11.6 4 Sudoeste 12 Sudoeste 0 905.8 0.1 32
2019-02-14 18:00:00 15.7 5 Noroeste 8 Noroeste 0 905.3 -1 27
2019-02-14 17:00:00 18.1 6 Norte 17 Noroeste 0 905.5 -1.5 22
2019-02-14 16:00:00 17.8 10 Norte 19 Norte 0 905.7 -2.2 21
2019-02-14 15:00:00 17.4 10 Norte 24 Norte 0 906.3 -2.3 17
2019-02-14 14:00:00 16.3 9 Norte 21 Norte 0 907 -2.1 16
2019-02-14 13:00:00 13.7 9 Norte 17 Norte 0 907.9 -1.4 23
2019-02-14 12:00:00 8.1 3 Sudoeste 5 Sudoeste 0 908.6 -0.5 36
2019-02-14 11:00:00 3.3 3 Sudeste 5 Sur 0 909.1 0.3 53
2019-02-14 10:00:00 -2.4 0 Calma 4 Sur 0 909.3 0.7 84
2019-02-14 09:00:00 -6.1 0 Calma 3 Este 0 909.1 0.5 91
2019-02-14 08:00:00 -6.6 0 Calma 5 Sudeste 0 908.8 0.3 88
2019-02-14 07:00:00 -6.1 0 Calma 4 Sudeste 0 908.6 0 87
2019-02-14 06:00:00 -5.6 0 Calma 5 Sudeste 0 908.6 -0.2 86
2019-02-14 05:00:00 -5.2 2 Este 4 Sudeste 0 908.5 -0.3 85
2019-02-14 04:00:00 -4.6 0 Calma 4 Este 0 908.6 -0.1 85
2019-02-14 03:00:00 -4 0 Calma 4 Sudeste 0 908.8 0.3 83
2019-02-14 02:00:00 -3.3 2 Este 4 Sudeste 0 908.8 0.5 81
2019-02-14 01:00:00 -2.4 0 Calma 5 Este 0 908.7 0.8 79
2019-02-14 00:00:00 -1.4 0 Calma 6 Este 0 908.5 1 73
2019-02-13 23:00:00 -0.1 2 Sudeste 6 Sudeste 0 908.3 1.2 68
2019-02-13 22:00:00 1.3 3 Nordeste 9 Este 0 907.9 1.5 63
2019-02-13 21:00:00 3.6 0 Calma 7 Sudeste 0 907.5 1.4 55
2019-02-13 20:00:00 6.3 2 Sudoeste 6 Sudoeste 0 907.1 1.1 45
2019-02-13 19:00:00 10.5 2 Este 8 Este 0 906.4 0.2 37
2019-02-13 18:00:00 14.5 5 Nordeste 16 Nordeste 0 906.1 -0.3 31
2019-02-13 17:00:00 17.1 8 Norte 17 Norte 0 906 -1.1 28
2019-02-13 16:00:00 17.2 5 Sudeste 14 Sur 0 906.2 -1.3 23
2019-02-13 15:00:00 16.7 3 Noroeste 7 Sur 0 906.4 -1.5 21
2019-02-13 14:00:00 15.3 4 Oeste 9 Sur 0 907.1 -0.9 26
2019-02-13 13:00:00 13.2 4 Sudoeste 7 Oeste 0 907.5 -0.6 37
2019-02-13 12:00:00 8.4 3 Oeste 6 Sudoeste 0 907.9 -0.3 56
2019-02-13 11:00:00 3.2 2 Sur 5 Sudoeste 0 908 0.3 70
2019-02-13 10:00:00 -1.7 2 Sudoeste 4 Sur 0 908.1 0.5 92
2019-02-13 09:00:00 -5.4 2 Sudeste 4 Este 0 908.2 0.5 93
2019-02-13 08:00:00 -6 2 Sudeste 3 Sudeste 0 907.7 0 91
2019-02-13 07:00:00 -5.7 0 Calma 3 Sudeste 0 907.6 -0.1 91
2019-02-13 06:00:00 -5.4 0 Calma 3 Este 0 907.7 -0.4 91
2019-02-13 05:00:00 -4.9 2 Nordeste 3 Nordeste 0 907.7 -0.5 90
2019-02-13 04:00:00 -4.4 0 Calma 4 Sudeste 0 907.7 -0.8 89
2019-02-13 03:00:00 -3.7 0 Calma 5 Este 0 908.1 -0.4 90
2019-02-13 02:00:00 -3.1 0 Calma 4 Este 0 908.2 -0.5 89
2019-02-13 01:00:00 -2.5 0 Calma 4 Sudeste 0 908.5 -0.1 87
2019-02-13 00:00:00 -1.6 0 Calma 6 Sudeste 0 908.5 0.4 85
2019-02-12 23:00:00 -0.5 0 Calma 6 Sudeste 0 908.7 1 82
2019-02-12 22:00:00 0.8 2 Este 6 Sudeste 0 908.6 1.3 76
2019-02-12 21:00:00 2.7 3 Este 6 Sudeste 0 908.1 1.4 69
2019-02-12 20:00:00 5.8 2 Sudeste 6 Sudoeste 0 907.7 1.4 57
2019-02-12 19:00:00 10 4 Noroeste 8 Noroeste 0 907.3 0.9 46
2019-02-12 18:00:00 13 6 Noroeste 12 Noroeste 0 906.7 -0.1 39
2019-02-12 17:00:00 15.1 2 Sudeste 11 Oeste 0 906.3 -1.1 31
2019-02-12 16:00:00 14.7 4 Norte 10 Nordeste 0 906.4 -1.9 36
2019-02-12 15:00:00 13.5 4 Nordeste 12 Este 0 906.8 -2.2 37
2019-02-12 14:00:00 11.7 4 Este 12 Este 0 907.4 -1.7 42
2019-02-12 13:00:00 9.9 4 Sur 13 Sudeste 0 908.3 -0.6 48
2019-02-12 12:00:00 7.1 5 Este 12 Este 0 909 0.7 57
2019-02-12 11:00:00 3.3 3 Sur 6 Sudeste 0 909.1 1.1 76
2019-02-12 10:00:00 -1.2 3 Este 6 Nordeste 0 908.9 1.1 92
2019-02-12 09:00:00 -4.5 3 Este 6 Este 0 908.3 0.7 94
2019-02-12 08:00:00 -5 2 Sudoeste 6 Este 0 908 0.6 93
2019-02-12 07:00:00 -4.5 0 Calma 6 Este 0 907.8 0.1 93
2019-02-12 06:00:00 -3.9 3 Este 6 Este 0 907.6 -0.5 92
2019-02-12 05:00:00 -2.8 3 Este 6 Este 0 907.4 -0.7 92
2019-02-12 04:00:00 -1.6 3 Este 8 Sur 0 907.7 -0.5 91
2019-02-12 03:00:00 -1.1 2 Nordeste 5 Sudeste 0 908.1 0.2 93
2019-02-12 02:00:00 -1.6 2 Sur 7 Este 0 908.1 0.3 94
2019-02-12 01:00:00 -2.2 3 Nordeste 10 Sudeste 0 908.2 0.8 92
2019-02-12 00:00:00 -1.8 3 Nordeste 7 Sudeste 0 907.9 0.8 89
2019-02-11 23:00:00 -0.7 3 Norte 6 Norte 0 907.8 1 89
2019-02-11 22:00:00 0.2 0 Calma 10 Este 0 907.4 1.2 85
2019-02-11 21:00:00 1.8 3 Norte 10 Nordeste 0 907.1 1.4 82
2019-02-11 20:00:00 3.3 4 Nordeste 11 Nordeste 0 906.8 1.2 75
2019-02-11 19:00:00 5.1 4 Norte 17 Norte 0 906.2 0.7 65
2019-02-11 18:00:00 7.4 9 Norte 21 Norte 0 905.7 0.3 53
2019-02-11 17:00:00 9.2 10 Norte 24 Norte 0 905.6 0.3 50
2019-02-11 16:00:00 10.4 8 Norte 31 Nordeste 0 905.5 -0.2 47
2019-02-11 15:00:00 9.6 15 Norte 30 Norte 0 905.4 -1.1 48
2019-02-11 14:00:00 9.5 14 Norte 30 Norte 0 905.3 -0.8 51
2019-02-11 13:00:00 8.9 9 Norte 19 Norte 0 905.7 -0.1 53
2019-02-11 12:00:00 8.1 7 Nordeste 24 Norte 0 906.5 1.5 55
2019-02-11 11:00:00 6 10 Norte 20 Norte 0 906.1 1.8 64
2019-02-11 10:00:00 3.8 4 Nordeste 12 Este 0 905.8 1.6 77
2019-02-11 09:00:00 1.1 0 Calma 6 Este 0 905 1.5 89
2019-02-11 08:00:00 2.7 2 Noroeste 8 Norte 0 904.3 1.7 83
2019-02-11 07:00:00 3.1 6 Nordeste 19 Norte 0 904.2 1.6 88
2019-02-11 06:00:00 3.2 8 Norte 18 Norte 0 903.5 1.7 88
2019-02-11 05:00:00 4 5 Noroeste 11 Nordeste 0 902.6 1.2 91
2019-02-11 04:00:00 4.7 3 Sur 13 Norte 0 902.6 1.7 90
2019-02-11 03:00:00 6.1 5 Oeste 11 Oeste 0 901.8 1 87
2019-02-11 02:00:00 6.8 3 Oeste 19 Noroeste 0.4 901.4 0.4 90
2019-02-11 01:00:00 7.3 6 Oeste 15 Oeste 0 900.9 0.4 90
2019-02-11 00:00:00 7.6 6 Oeste 18 Oeste 0 900.8 0.4 88
2019-02-10 23:00:00 7.5 8 Oeste 20 Oeste 0 901 1.1 89
2019-02-10 22:00:00 7.4 8 Oeste 19 Sudoeste 0 900.5 0.8 90
2019-02-10 21:00:00 7.5 11 Oeste 26 Oeste 0 900.4 0.9 90
2019-02-10 20:00:00 7.6 13 Sudoeste 24 Sudoeste 0 899.9 0.8 84
2019-02-10 19:00:00 7.6 10 Sudoeste 25 Oeste 0 899.7 1 82
2019-02-10 18:00:00 8.1 15 Sudoeste 31 Sudoeste 0 899.5 0.6 78
2019-02-10 17:00:00 9.2 17 Oeste 36 Oeste 0 899.1 -0.4 73
2019-02-10 16:00:00 10.6 17 Oeste 36 Oeste 0 898.7 -1.3 65
2019-02-10 15:00:00 10.7 17 Sudoeste 39 Sudoeste 0 898.9 -1.3 64
2019-02-10 14:00:00 8.7 19 Sudoeste 44 Oeste 0 899.5 -0.5 72
2019-02-10 13:00:00 8.3 15 Sudoeste 36 Sudoeste 0 900 0.6 71
2019-02-10 12:00:00 7.8 18 Sudoeste 35 Oeste 0 900.2 0.8 72
2019-02-10 11:00:00 7.2 14 Sudoeste 32 Sudoeste 0 900 1.1 71
2019-02-10 10:00:00 6 12 Oeste 25 Oeste 0 899.4 1.2 75
2019-02-10 09:00:00 4.7 17 Oeste 33 Oeste 0 899.4 1.5 81
2019-02-10 08:00:00 5 17 Oeste 37 Oeste 0 898.9 0.7 78
2019-02-10 07:00:00 5.2 14 Oeste 38 Oeste 0 898.2 0.2 79
2019-02-10 06:00:00 5.7 14 Oeste 32 Oeste 0 897.9 -0.5 80
2019-02-10 05:00:00 5.4 15 Sudoeste 39 Oeste 0 898.2 -0.6 82
2019-02-10 04:00:00 5.2 16 Oeste 29 Oeste 0 898 -1.3 76
2019-02-10 03:00:00 4.9 10 Sudoeste 17 Oeste 0 898.4 -1 75
2019-02-10 02:00:00 4.9 8 Sudoeste 18 Oeste 0 898.8 -0.6 75
2019-02-10 01:00:00 5 9 Oeste 18 Oeste 0 899.3 -0.3 71
2019-02-10 00:00:00 3.6 9 Sudoeste 14 Oeste 0 899.4 0.1 75
2019-02-09 23:00:00 0.5 2 Sudeste 6 Sudeste 0 899.4 0.1 83
2019-02-09 22:00:00 1.1 0 Calma 4 Este 0 899.6 0.7 77
2019-02-09 21:00:00 2.8 0 Calma 4 Sudeste 0 899.3 0.6 70
2019-02-09 20:00:00 5.2 4 Sudoeste 9 Sudoeste 0 899.3 0.3 61
2019-02-09 19:00:00 8.1 4 Sudoeste 16 Oeste 0 898.9 -0.2 49
2019-02-09 18:00:00 10.6 9 Sudoeste 27 Oeste 0 898.7 -0.6 37
2019-02-09 17:00:00 13.4 15 Oeste 28 Oeste 0 899 -0.7 31
2019-02-09 16:00:00 14.4 13 Sudoeste 25 Sudoeste 0 899.1 -1.5 29
2019-02-09 15:00:00 14.2 13 Oeste 23 Oeste 0 899.3 -2 30
2019-02-09 14:00:00 13.1 8 Oeste 16 Noroeste 0 899.7 -1.9 49
2019-02-09 13:00:00 10.5 4 Sudeste 9 Sudeste 0 900.6 -1.2 58
2019-02-09 12:00:00 7.5 3 Sudoeste 6 Sur 0 901.3 -0.2 68
2019-02-09 11:00:00 3.4 2 Sur 5 Sudeste 0 901.6 0.7 79
2019-02-09 10:00:00 -0.6 2 Nordeste 6 Este 0 901.8 1 96
2019-02-09 09:00:00 -4.1 2 Sudeste 5 Este 0 901.5 0.7 94
2019-02-09 08:00:00 -4.2 3 Este 6 Sudeste 0 900.9 0.4 93
2019-02-09 07:00:00 -3.7 2 Este 4 Este 0 900.8 0 92
2019-02-09 06:00:00 -3.1 2 Este 5 Este 0 900.8 0.3 92
2019-02-09 05:00:00 -2.7 2 Este 5 Sudeste 0 900.5 0.1 91
2019-02-09 04:00:00 -2.4 0 Calma 6 Este 0 900.8 0.3 89
2019-02-09 03:00:00 -2.2 2 Este 5 Sudeste 0 900.5 -0.1 88
2019-02-09 02:00:00 -1.4 0 Calma 5 Este 0 900.4 -0.4 86
2019-02-09 01:00:00 -0.6 3 Sudeste 6 Este 0 900.5 0.2 83
2019-02-09 00:00:00 0.2 3 Este 8 Nordeste 0 900.6 1 80
2019-02-08 23:00:00 1 4 Este 8 Sudeste 0 900.8 1.5 75
2019-02-08 22:00:00 3.9 3 Este 14 Oeste 0 900.3 1.4 66
2019-02-08 21:00:00 6.2 10 Oeste 16 Sudoeste 0 899.6 1.1 60
2019-02-08 20:00:00 6.9 6 Oeste 13 Oeste 0 899.3 0.4 54
2019-02-08 19:00:00 9.2 8 Oeste 17 Oeste 0 898.9 -0.1 46
2019-02-08 18:00:00 11.6 6 Sudoeste 25 Sudoeste 0 898.5 -0.7 39
2019-02-08 17:00:00 13.8 12 Sudoeste 28 Oeste 0 898.9 -0.9 32
2019-02-08 16:00:00 14.4 12 Sudoeste 29 Oeste 0 899 -1.2 33
2019-02-08 15:00:00 14.1 14 Sudoeste 32 Sudoeste 0 899.2 -1.2 37
2019-02-08 14:00:00 13.6 15 Sudoeste 33 Sudoeste 0 899.8 -1 41
2019-02-08 13:00:00 12.8 15 Oeste 29 Oeste 0 900.2 -0.8 45
2019-02-08 12:00:00 9.8 7 Oeste 14 Oeste 0 900.4 -0.7 60
2019-02-08 11:00:00 2.4 2 Sudoeste 4 Oeste 0 900.8 0 85
2019-02-08 10:00:00 -2.7 2 Sur 4 Sur 0 901 0.2 97
2019-02-08 09:00:00 -5.8 0 Calma 3 Sudeste 0 901.1 0.1 94
2019-02-08 08:00:00 -6.2 0 Calma 4 Este 0 900.8 -0.6 92
2019-02-08 07:00:00 -5.9 0 Calma 3 Este 0 900.8 -0.7 92
2019-02-08 06:00:00 -5.5 0 Calma 3 Este 0 901 -0.8 92
2019-02-08 05:00:00 -5 0 Calma 3 Este 0 901.4 -0.7 92
2019-02-08 04:00:00 -4.4 0 Calma 4 Sudeste 0 901.5 -0.8 92
2019-02-08 03:00:00 -3.7 0 Calma 4 Sudeste 0 901.8 -0.6 91
2019-02-08 02:00:00 -2.9 2 Sudeste 5 Sudeste 0 902.1 -0.4 92
2019-02-08 01:00:00 -2.5 3 Este 5 Este 0 902.3 0.2 92
2019-02-08 00:00:00 -1.8 3 Este 5 Sudeste 0 902.4 0.8 90
2019-02-07 23:00:00 -0.7 4 Este 7 Este 0 902.5 1.2 88
2019-02-07 22:00:00 0.9 2 Nordeste 8 Sudeste 0 902.1 1.1 84
2019-02-07 21:00:00 3.1 3 Este 9 Este 0 901.6 1 78
2019-02-07 20:00:00 5.6 2 Nordeste 11 Nordeste 0 901.3 0.9 69
2019-02-07 19:00:00 7.9 5 Norte 17 Noroeste 0 901 0.6 62
2019-02-07 18:00:00 11.1 7 Noroeste 18 Noroeste 0 900.6 0.1 49
2019-02-07 17:00:00 13.1 9 Oeste 17 Oeste 0 900.4 -0.5 44
2019-02-07 16:00:00 13.4 9 Oeste 22 Noroeste 0 900.4 -1.2 43
2019-02-07 15:00:00 13.3 10 Oeste 24 Oeste 0 900.5 -1.6 44
2019-02-07 14:00:00 13 8 Oeste 18 Oeste 0 900.9 -1.2 42
2019-02-07 13:00:00 11.7 7 Oeste 19 Noroeste 0 901.6 -0.5 34
2019-02-07 12:00:00 9 2 Oeste 6 Sudeste 0 902.1 0.3 60
2019-02-07 11:00:00 3.6 3 Sudoeste 5 Sur 0 902.1 0.7 86
2019-02-07 10:00:00 -1 3 Sur 5 Sudeste 0 902.1 1.1 98
2019-02-07 09:00:00 -3.6 0 Calma 5 Sur 0 901.8 0.8 94
2019-02-07 08:00:00 -3.3 2 Este 5 Sudeste 0 901.4 0.4 94
2019-02-07 07:00:00 -3 0 Calma 5 Sudeste 0 901 -0.5 94
2019-02-07 06:00:00 -2.8 0 Calma 3 Sudeste 0 901 -0.7 94
2019-02-07 05:00:00 -2.7 0 Calma 4 Sudeste 0 901 -0.8 95
2019-02-07 04:00:00 -2.6 0 Calma 3 Este 0 901.5 -0.4 94
2019-02-07 03:00:00 -2.1 2 Este 3 Este 0 901.7 0 93
2019-02-07 02:00:00 -1.4 0 Calma 5 Este 0 901.8 0 94
2019-02-07 01:00:00 -1 2 Este 6 Este 0 901.9 0 93
2019-02-07 00:00:00 -0.3 2 Sudeste 5 Sudeste 0 901.7 -0.2 91
2019-02-06 23:00:00 0.7 3 Este 6 Este 0 901.8 0 89
2019-02-06 22:00:00 1.8 2 Este 5 Este 0 901.9 0.5 85
2019-02-06 21:00:00 3.6 3 Nordeste 4 Sudeste 0 901.9 0.8 79
2019-02-06 20:00:00 6.1 2 Sudoeste 5 Sur 0 901.8 0.8 69
2019-02-06 19:00:00 9.6 2 Oeste 14 Oeste 0 901.4 0.2 56
2019-02-06 18:00:00 13.3 8 Oeste 20 Oeste 0 901.1 -0.7 44
2019-02-06 17:00:00 15.5 12 Oeste 19 Oeste 0 901 -1.6 38
2019-02-06 16:00:00 15.7 8 Sudoeste 16 Sur 0 901.2 -2.3 40
2019-02-06 15:00:00 15.6 8 Oeste 19 Oeste 0 901.8 -2.8 41
2019-02-06 14:00:00 14.2 11 Sudoeste 20 Sudoeste 0 902.6 -2.3 49
2019-02-06 13:00:00 12 4 Oeste 8 Noroeste 0 903.5 -1.7 59
2019-02-06 12:00:00 6.4 2 Oeste 8 Este 0 904.6 -0.4 80
2019-02-06 11:00:00 1.4 3 Sudeste 5 Sudeste 0 904.9 0.1 93
2019-02-06 10:00:00 -2 0 Calma 4 Sur 0 905.2 0.5 99
2019-02-06 09:00:00 -3 0 Calma 4 Sur 0 905 0.1 97
2019-02-06 08:00:00 -3.2 2 Nordeste 3 Nordeste 0 904.8 -0.3 97
2019-02-06 07:00:00 -3.6 0 Calma 3 Este 0 904.7 -0.8 96
2019-02-06 06:00:00 -3.9 0 Calma 4 Este 0 904.9 -0.8 94
2019-02-06 05:00:00 -3.8 2 Este 4 Este 0 905.1 -0.8 93
2019-02-06 04:00:00 -3.3 0 Calma 5 Este 0 905.5 -0.6 94
2019-02-06 03:00:00 -2.8 0 Calma 3 Este 0 905.7 -0.2 93
2019-02-06 02:00:00 -2.2 0 Calma 5 Nordeste 0 905.9 -0.2 93
2019-02-06 01:00:00 -1.5 0 Calma 4 Nordeste 0 906.1 0 93
2019-02-06 00:00:00 -0.7 0 Calma 4 Este 0 905.9 0 91
2019-02-05 23:00:00 0.2 0 Calma 5 Este 0 906.1 0.5 89
2019-02-05 22:00:00 1.5 4 Este 8 Nordeste 0 906.1 0.9 88
2019-02-05 21:00:00 3 3 Sudeste 6 Este 0 905.9 0.9 84
2019-02-05 20:00:00 5.4 2 Este 8 Norte 0 905.6 0.7 76
2019-02-05 19:00:00 8.4 3 Norte 10 Noroeste 0 905.2 0.3 66
2019-02-05 18:00:00 11.9 7 Norte 15 Norte 0 905 -0.1 54
2019-02-05 17:00:00 14.4 8 Norte 21 Nordeste 0 904.9 -0.5 47
2019-02-05 16:00:00 14.9 8 Norte 17 Norte 0 904.9 -1 47
2019-02-05 15:00:00 14.2 8 Noroeste 23 Oeste 0 905.1 -1.7 48
2019-02-05 14:00:00 13.9 10 Noroeste 23 Noroeste 0 905.4 -1.4 49
2019-02-05 13:00:00 12.3 10 Oeste 18 Oeste 0 905.9 -0.8 51
2019-02-05 12:00:00 8.7 3 Sudoeste 6 Sudoeste 0 906.8 0.3 58
2019-02-05 11:00:00 4.6 3 Sudoeste 5 Sudoeste 0 906.8 0.7 69
2019-02-05 10:00:00 1.1 2 Sur 6 Oeste 0 906.7 0.8 78
2019-02-05 09:00:00 -0.5 3 Sudoeste 5 Sudoeste 0 906.5 0.7 85
2019-02-05 08:00:00 -1.2 2 Nordeste 5 Nordeste 0 906.1 0.6 90
2019-02-05 07:00:00 -1.6 3 Sudoeste 4 Sudoeste 0 905.9 0.3 91
2019-02-05 06:00:00 -1.5 0 Calma 4 Sudeste 0 905.8 -0.2 90
2019-02-05 05:00:00 -1.1 0 Calma 5 Este 0 905.5 -0.6 89
2019-02-05 04:00:00 -1.3 3 Este 6 Este 0 905.6 -0.7 91
2019-02-05 03:00:00 -1.7 0 Calma 3 Norte 0 906 -0.3 86
2019-02-05 02:00:00 -1.9 2 Sur 4 Este 0 906.1 0.1 91
2019-02-05 01:00:00 -2.6 2 Este 4 Este 0 906.3 0.7 87
2019-02-05 00:00:00 -1.9 2 Este 6 Este 0 906.3 1 84
2019-02-04 23:00:00 -0.7 2 Este 5 Este 0 906 0.9 81
2019-02-04 22:00:00 0.7 4 Este 8 Este 0 905.6 1.1 76
2019-02-04 21:00:00 3.5 4 Este 14 Noroeste 0 905.3 1.3 64
2019-02-04 20:00:00 3.9 2 Oeste 12 Oeste 0 905.1 1.1 59
2019-02-04 19:00:00 7.3 4 Noroeste 15 Norte 0 904.5 0.7 44
2019-02-04 18:00:00 9.2 7 Noroeste 23 Noroeste 0 904 0.1 33
2019-02-04 17:00:00 11.1 12 Noroeste 22 Noroeste 0 904 -0.2 29
2019-02-04 16:00:00 12.2 10 Noroeste 22 Norte 0 903.8 -0.9 28
2019-02-04 15:00:00 11.4 10 Noroeste 19 Norte 0 903.9 -1.4 35
2019-02-04 14:00:00 9.8 9 Oeste 16 Oeste 0 904.2 -1.3 41
2019-02-04 13:00:00 8 6 Sudoeste 12 Sudoeste 0 904.7 -1 46
2019-02-04 12:00:00 4.7 3 Oeste 6 Noroeste 0 905.3 0.3 59
2019-02-04 11:00:00 0.9 2 Sudeste 8 Sudeste 0 905.5 1.1 71
2019-02-04 10:00:00 -3.9 4 Sudeste 7 Sudeste 0 905.7 1.2 93
2019-02-04 09:00:00 -7 4 Sudeste 7 Este 0 905 0.1 92
2019-02-04 08:00:00 -7.4 3 Sudeste 8 Sudeste 0 904.4 0 91
2019-02-04 07:00:00 -7 3 Nordeste 8 Este 0 904.5 -0.6 91
2019-02-04 06:00:00 -6.4 2 Sudeste 7 Este 0 904.9 0.2 91
2019-02-04 05:00:00 -5.7 4 Este 9 Este 0 904.4 -0.4 91
2019-02-04 04:00:00 -5.1 5 Este 8 Este 0 905.1 0.7 89
2019-02-04 03:00:00 -3.7 2 Oeste 9 Sudoeste 0 904.7 0.2 84
2019-02-04 02:00:00 -2.4 4 Oeste 18 Norte 0 904.8 0.5 82
2019-02-04 01:00:00 -2 4 Noroeste 14 Noroeste 0 904.4 0.6 81
2019-02-04 00:00:00 -1.6 8 Noroeste 20 Noroeste 0 904.5 1.1 79
2019-02-03 23:00:00 -1.6 10 Noroeste 18 Norte 0 904.3 1.2 78
2019-02-03 22:00:00 -1 6 Noroeste 14 Noroeste 0 903.8 1.5 75
2019-02-03 21:00:00 -0.5 6 Norte 28 Noroeste 0 903.4 1.5 72
2019-02-03 20:00:00 -0.3 9 Norte 27 Norte 0 903.1 1.3 74
2019-02-03 19:00:00 0.4 9 Norte 19 Noroeste 0 902.3 0.7 71
2019-02-03 18:00:00 0.6 9 Noroeste 27 Norte 0 901.9 0.6 68
2019-02-03 17:00:00 1.1 11 Noroeste 30 Noroeste 0 901.8 0.6 66
2019-02-03 16:00:00 2 14 Noroeste 33 Norte 0 901.6 0.7 62
2019-02-03 15:00:00 2.5 13 Noroeste 37 Noroeste 0 901.3 0.7 58
2019-02-03 14:00:00 4.4 17 Noroeste 40 Noroeste 0 901.2 1.2 53
2019-02-03 13:00:00 1.7 17 Norte 40 Noroeste 0 900.9 1.3 62
2019-02-03 12:00:00 0.6 15 Noroeste 37 Noroeste 0 900.6 1.6 66
2019-02-03 11:00:00 0 16 Noroeste 31 Norte 0 900 1.9 68
2019-02-03 10:00:00 -1.3 11 Noroeste 25 Noroeste 0 899.6 2.6 71
2019-02-03 09:00:00 -2.1 4 Oeste 18 Oeste 0 899 2.3 75
2019-02-03 08:00:00 -2.6 6 Oeste 26 Noroeste 0 898.1 1.6 76
2019-02-03 07:00:00 -2.2 14 Noroeste 33 Noroeste 0 897 1.1 74
2019-02-03 06:00:00 -1.9 11 Noroeste 31 Noroeste 0 896.7 1.4 78
2019-02-03 05:00:00 -1.9 12 Noroeste 33 Noroeste 0 896.5 1.8 75
2019-02-03 04:00:00 -1.7 13 Noroeste 36 Noroeste 0 895.9 1.7 78
2019-02-03 03:00:00 -1.4 14 Noroeste 37 Oeste 0 895.3 1.6 75
2019-02-03 02:00:00 -1.1 17 Noroeste 42 Noroeste 0 894.7 1.3 75
2019-02-03 01:00:00 -1 8 Noroeste 28 Oeste 0 894.2 1.2 78
2019-02-03 00:00:00 -1.2 9 Noroeste 32 Noroeste 0 893.7 1.2 80
2019-02-02 23:00:00 -1.2 11 Oeste 26 Oeste 0 893.4 1.5 79
2019-02-02 22:00:00 -1.3 11 Oeste 25 Oeste 0 893 1.8 78
2019-02-02 21:00:00 -0.6 11 Oeste 32 Sudoeste 0 892.5 2 69
2019-02-02 20:00:00 -0.1 15 Noroeste 42 Noroeste 0 891.9 2 66
2019-02-02 19:00:00 -0.1 11 Noroeste 28 Noroeste 0 891.2 2.4 69
2019-02-02 18:00:00 1.1 15 Noroeste 39 Noroeste 0 890.5 2.5 57
2019-02-02 17:00:00 2.3 16 Noroeste 43 Norte 0 889.9 2.6 49
2019-02-02 16:00:00 3.1 14 Noroeste 44 Oeste 0 888.8 2.1 56
2019-02-02 15:00:00 3.7 17 Oeste 42 Oeste 0 888 1.5 57
2019-02-02 14:00:00 2.3 17 Oeste 41 Noroeste 0 887.3 2.2 68
2019-02-02 13:00:00 2.2 17 Oeste 41 Oeste 0 886.7 2.6 71
2019-02-02 12:00:00 1.6 19 Oeste 49 Noroeste 0 886.5 4 75
2019-02-02 11:00:00 1.7 19 Oeste 43 Oeste 0 885.1 4.3 74
2019-02-02 10:00:00 1 16 Oeste 44 Noroeste 0 884.1 4.5 77
2019-02-02 09:00:00 0.8 13 Oeste 36 Sudoeste 0 882.5 3.8 80
2019-02-02 08:00:00 0.9 18 Oeste 36 Oeste 0 880.8 3.1 78
2019-02-02 07:00:00 0.8 12 Oeste 33 Oeste 0 879.6 2.6 79
2019-02-02 06:00:00 0.8 16 Oeste 37 Oeste 0 878.7 2.3 81
2019-02-02 05:00:00 0.9 16 Oeste 32 Noroeste 0 877.7 2.1 83
2019-02-02 04:00:00 0.9 18 Oeste 38 Sudoeste 0.2 877 2 86
2019-02-02 03:00:00 0.6 17 Oeste 36 Oeste 0.4 876.4 2.2 93
2019-02-02 02:00:00 1 15 Oeste 37 Oeste 0.2 875.6 2.3 91
2019-02-02 01:00:00 1.1 17 Oeste 45 Oeste 0 875 1.6 90
2019-02-02 00:00:00 1.3 19 Oeste 38 Oeste 0 874.2 1.3 88
2019-02-01 23:00:00 1.1 19 Oeste 36 Oeste 0 873.3 0.5 89
2019-02-01 22:00:00 1.3 17 Sudoeste 37 Oeste 0 873.4 1.2 85
2019-02-01 21:00:00 1.8 18 Oeste 39 Oeste 0 872.9 1.5 82
2019-02-01 20:00:00 1.5 12 Oeste 27 Oeste 0.8 872.8 1.8 90
2019-02-01 19:00:00 2.1 15 Oeste 37 Sur 0.2 872.2 0.4 88
2019-02-01 18:00:00 2.5 18 Sudoeste 55 Sudoeste 0.6 871.4 -1 90
2019-02-01 17:00:00 4.1 19 Sudoeste 41 Sudoeste 0.2 871 -2 86
2019-02-01 16:00:00 5.5 19 Sudoeste 46 Oeste 0 871.8 -1.7 78
2019-02-01 15:00:00 5.3 18 Sudoeste 41 Sudoeste 0 872.4 -1.7 73
2019-02-01 14:00:00 7.1 22 Sudoeste 40 Sur 0 873 -1 68
2019-02-01 13:00:00 7.1 22 Sudoeste 43 Sudoeste 0 873.5 -0.1 61
2019-02-01 12:00:00 6.1 22 Oeste 45 Oeste 0 874.1 0.7 72
2019-02-01 11:00:00 5.3 -- -- 32 Sur 0 874 0.9 85
2019-02-01 10:00:00 5.3 11 Sudoeste 26 Sudoeste 0 873.6 0.5 86
2019-02-01 09:00:00 4.9 12 Sudoeste 28 Sur 0 873.4 0.1 89
2019-02-01 08:00:00 4.8 6 Oeste 21 Sudoeste 0.4 873.1 0.2 96
2019-02-01 07:00:00 5 10 Oeste 23 Oeste 0.4 873.1 -0.4 94
2019-02-01 06:00:00 5.1 6 Sudoeste 32 Noroeste 2.8 873.3 -1 93
2019-02-01 05:00:00 7.6 22 Sudoeste 46 Sudoeste 1.4 872.9 -2.1 89
2019-02-01 04:00:00 7.7 13 Sudoeste 43 Oeste 1.6 873.5 -2.6 91
2019-02-01 03:00:00 7.8 15 Sudoeste 38 Sudoeste 0.2 874.3 -2.1 90
2019-02-01 02:00:00 7.7 21 Sudoeste 46 Sudoeste 0 875 -2.5 88
2019-02-01 01:00:00 7.9 22 Sudoeste 54 Sudoeste 0.6 876.1 -2 88
2019-02-01 00:00:00 8.2 22 Sudoeste 50 Sudoeste 0 876.4 -2 88
2019-01-31 23:00:00 8.2 27 Sudoeste 51 Sudoeste 0 877.5 -1.5 87
2019-01-31 22:00:00 8.4 30 Oeste 58 Oeste 0 878.1 -1.1 86
2019-01-31 21:00:00 8.8 27 Sudoeste 51 Sudoeste 0.2 878.4 -1.6 84
2019-01-31 20:00:00 8.5 24 Sudoeste 52 Sudoeste 0 879 -1.5 89
2019-01-31 19:00:00 8.9 19 Sudoeste 45 Sudoeste 0 879.2 -1.7 84
2019-01-31 18:00:00 8.7 20 Sudoeste 49 Oeste 0 880 -0.9 86
2019-01-31 17:00:00 8.6 16 Sudoeste 38 Sudoeste 0 880.5 -0.7 86
2019-01-31 16:00:00 8.5 16 Sudoeste 37 Oeste 0 880.9 -0.9 87
2019-01-31 15:00:00 9.1 17 Sudoeste 40 Oeste 0 880.9 -1.1 82
2019-01-31 14:00:00 8.6 16 Sudoeste 35 Sudoeste 0 881.2 -0.8 84
2019-01-31 13:00:00 8.7 14 Sudoeste 42 Oeste 0 881.8 -0.1 80
2019-01-31 12:00:00 9.3 18 Sudoeste 49 Oeste 0 882 0.7 78
2019-01-31 11:00:00 8.1 19 Sudoeste 43 Oeste 0 882 1.2 86
2019-01-31 10:00:00 7.9 21 Oeste 42 Oeste 0 881.9 1 86
2019-01-31 09:00:00 7.6 22 Oeste 45 Sudoeste 0.2 881.3 0.2 87
2019-01-31 08:00:00 7.2 16 Sudoeste 38 Sudoeste 0 880.8 -0.5 91
2019-01-31 07:00:00 6.9 18 Sudoeste 43 Sudoeste 0 880.9 -1 91
2019-01-31 06:00:00 6.3 18 Sudoeste 36 Sudoeste 0.4 881.1 -1.1 94
2019-01-31 05:00:00 5.9 15 Oeste 31 Oeste 0.4 881.3 -1.5 94
2019-01-31 04:00:00 5.4 12 Sudoeste 28 Sudoeste 0.4 881.9 -1.6 94
2019-01-31 03:00:00 4.9 14 Oeste 31 Oeste 0.4 882.2 -1.6 93
2019-01-31 02:00:00 4.4 17 Sudoeste 32 Oeste 0.2 882.8 -2 93
2019-01-31 01:00:00 3.4 14 Oeste 27 Oeste 0.2 883.5 -2.2 92
2019-01-31 00:00:00 2.6 14 Oeste 26 Sudoeste 0.4 883.8 -2.6 91
2019-01-30 23:00:00 2.2 10 Sudoeste 21 Sudoeste 0.4 884.8 -2.2 91
2019-01-30 22:00:00 2.2 10 Sudoeste 35 Oeste 0 885.7 -1.2 86
2019-01-30 21:00:00 3.1 14 Sudoeste 30 Oeste 0 886.4 -0.5 72
2019-01-30 20:00:00 3.7 17 Sudoeste 38 Sudoeste 0 887 -0.2 65
2019-01-30 19:00:00 4 13 Oeste 28 Sudoeste 0 886.9 -0.5 55
2019-01-30 18:00:00 5.2 13 Sudoeste 35 Oeste 0 886.9 -0.9 52
2019-01-30 17:00:00 6.4 19 Oeste 36 Sudoeste 0 887.2 -1.3 46
2019-01-30 16:00:00 7.6 17 Sudoeste 39 Oeste 0 887.4 -2.1 43
2019-01-30 15:00:00 7.6 18 Oeste 33 Oeste 0 887.8 -2.5 41
2019-01-30 14:00:00 7.2 16 Oeste 31 Oeste 0 888.5 -1.9 41
2019-01-30 13:00:00 6.9 13 Oeste 30 Sudoeste 0 889.5 -0.3 50
2019-01-30 12:00:00 5.4 15 Oeste 30 Oeste 0 890.3 0.3 57
2019-01-30 11:00:00 3.5 11 Oeste 25 Oeste 0 890.4 0.9 65
2019-01-30 10:00:00 1.7 8 Oeste 19 Oeste 0 889.8 0.1 75
2019-01-30 09:00:00 1 6 Oeste 21 Noroeste 0 890 -0.1 78
2019-01-30 08:00:00 1.3 11 Oeste 20 Oeste 0 889.5 -0.4 77
2019-01-30 07:00:00 1.3 8 Oeste 18 Oeste 0 889.7 -0.6 79
2019-01-30 06:00:00 0.9 0 Calma 6 Este 0 890.1 -0.1 85
2019-01-30 05:00:00 1.1 3 Sur 11 Noroeste 0 889.9 0 82
2019-01-30 04:00:00 1.2 3 Norte 9 Sudoeste 0 890.3 0.4 82
2019-01-30 03:00:00 1.2 3 Este 6 Noroeste 0 890.2 0.7 81
2019-01-30 02:00:00 1.5 3 Nordeste 12 Este 0 889.9 0.7 78
2019-01-30 01:00:00 2 4 Oeste 22 Oeste 0 889.9 1.1 74
2019-01-30 00:00:00 2.7 11 Oeste 25 Sudoeste 0 889.5 0.8 75
2019-01-29 23:00:00 3.4 10 Oeste 30 Oeste 0 889.2 1 78
2019-01-29 22:00:00 4.3 15 Oeste 35 Oeste 0 888.8 1.5 78
2019-01-29 21:00:00 5.1 14 Oeste 37 Oeste 0 888.7 1.4 83
2019-01-29 20:00:00 5.1 16 Oeste 31 Oeste 0 888.2 0.6 89
2019-01-29 19:00:00 5.1 12 Oeste 29 Oeste -- 887.3 -0.9 91
2019-01-29 18:00:00 5.5 17 Oeste 37 Oeste 0.4 887.3 -1.2 87
2019-01-29 17:00:00 5.7 13 Oeste 33 Oeste 0.2 887.6 -1.7 85
2019-01-29 16:00:00 6.1 18 Sudoeste 36 Oeste 0 888.2 -1.9 81
2019-01-29 15:00:00 6.6 18 Sudoeste 44 Oeste 0 888.5 -3.2 72
2019-01-29 14:00:00 6 17 Oeste 34 Oeste 0 889.3 -2.8 71
2019-01-29 13:00:00 5.5 16 Sudoeste 34 Oeste 0 890.1 -2.3 69
2019-01-29 12:00:00 4.8 9 Oeste 27 Oeste 0 891.7 -0.8 71
2019-01-29 11:00:00 2.8 12 Oeste 28 Sudoeste 0 892.1 -1.1 76
2019-01-29 10:00:00 1.1 5 Noroeste 15 Noroeste 0 892.4 -1 82
2019-01-29 09:00:00 -0.3 5 Oeste 14 Oeste 0 892.5 -1.5 87
2019-01-29 08:00:00 -1.6 4 Oeste 10 Oeste 0 893.2 -0.6 92
2019-01-29 07:00:00 -1.4 4 Oeste 11 Oeste 0 893.4 -0.7 89
2019-01-29 06:00:00 -0.9 5 Oeste 14 Oeste 0 894 -0.3 91
2019-01-29 05:00:00 -0.8 3 Oeste 16 Oeste 0 893.8 -0.9 89
2019-01-29 04:00:00 -0.6 5 Oeste 12 Oeste 0 894.1 -1 89
2019-01-29 03:00:00 -0.6 5 Noroeste 11 Oeste 0 894.3 -1.1 86
2019-01-29 02:00:00 0.6 5 Oeste 16 Oeste 0 894.7 -0.3 83
2019-01-29 01:00:00 0.6 6 Oeste 13 Oeste 0 895.1 0.1 83
2019-01-29 00:00:00 1.4 4 Sudoeste 21 Noroeste 0 895.4 0.7 77
2019-01-28 23:00:00 2.8 8 Oeste 24 Oeste 0 895 0.3 72
2019-01-28 22:00:00 2.7 7 Oeste 22 Oeste 0 895 0.9 77
2019-01-28 21:00:00 3.2 6 Oeste 18 Oeste 0 894.7 1.1 77
2019-01-28 20:00:00 3.5 2 Oeste 22 Noroeste 0 894.7 1.5 81
2019-01-28 19:00:00 4.6 8 Oeste 26 Oeste 0 894.1 1.4 82
2019-01-28 18:00:00 5.4 12 Oeste 32 Noroeste 0 893.6 0.9 82
2019-01-28 17:00:00 7.4 12 Oeste 38 Oeste 0 893.2 0.5 65
2019-01-28 16:00:00 7.7 16 Noroeste 43 Oeste 0 892.7 -0.3 58
2019-01-28 15:00:00 7.4 19 Oeste 50 Noroeste 0 892.7 -0.5 60
2019-01-28 14:00:00 7.6 22 Oeste 45 Noroeste 0 892.7 -0.3 60
2019-01-28 13:00:00 7 20 Oeste 48 Oeste 0 893 -0.2 63
2019-01-28 12:00:00 6.4 13 Oeste 35 Oeste 0 893.2 0 62
2019-01-28 11:00:00 3.7 13 Oeste 24 Oeste 0 893 0 70
2019-01-28 10:00:00 1.2 3 Nordeste 15 Noroeste 0 893.2 0.1 76
2019-01-28 09:00:00 0.2 5 Noroeste 10 Oeste 0 893.2 -0.3 77
2019-01-28 08:00:00 0 6 Oeste 14 Oeste 0 893 -0.8 76
2019-01-28 07:00:00 -0.7 6 Oeste 19 Oeste 0 893.1 -1.4 77
2019-01-28 06:00:00 -0.1 9 Oeste 19 Oeste 0 893.5 -1.2 75
2019-01-28 05:00:00 -0.6 9 Oeste 17 Oeste 0 893.8 -1 82
2019-01-28 04:00:00 -0.6 5 Sudoeste 19 Oeste 0 894.5 -0.8 80
2019-01-28 03:00:00 -0.1 10 Sudoeste 22 Sudoeste 0 894.7 -0.3 79
2019-01-28 02:00:00 0.1 8 Oeste 19 Oeste 0 894.8 0.1 75
2019-01-28 01:00:00 1.1 8 Oeste 27 Oeste 0 895.3 0.5 71
2019-01-28 00:00:00 0.9 7 Noroeste 22 Noroeste 0 895 0.7 75
2019-01-27 23:00:00 1.5 7 Noroeste 18 Noroeste 0 894.7 0.4 73
2019-01-27 22:00:00 2.4 5 Oeste 30 Oeste 0 894.8 1.2 69
2019-01-27 21:00:00 3.5 15 Noroeste 37 Nordeste 0 894.3 1.2 65
2019-01-27 20:00:00 2.9 4 Noroeste 14 Noroeste 0 894.3 1.4 66
2019-01-27 19:00:00 4.2 9 Oeste 33 Oeste 0 893.6 1.2 61
2019-01-27 18:00:00 5.4 17 Oeste 47 Oeste 0 893.1 1.2 57
2019-01-27 17:00:00 6.3 15 Oeste 41 Noroeste 0 892.9 0.8 52
2019-01-27 16:00:00 8.4 17 Oeste 45 Norte 0 892.4 -0.1 45
2019-01-27 15:00:00 7.5 21 Oeste 49 Noroeste 0 891.9 -0.7 49
2019-01-27 14:00:00 7.4 17 Oeste 41 Oeste 0 892.1 -0.4 51
2019-01-27 13:00:00 6.5 17 Oeste 43 Noroeste 0 892.5 0.5 61
2019-01-27 12:00:00 5.5 18 Oeste 47 Oeste 0 892.6 1.2 68
2019-01-27 11:00:00 4.6 16 Oeste 37 Noroeste 0 892.5 1.4 75
2019-01-27 10:00:00 -0.3 2 Este 9 Este 0 892 0.8 98
2019-01-27 09:00:00 -1.7 2 Este 9 Oeste 0 891.4 0.1 97
2019-01-27 08:00:00 -3.2 5 Oeste 10 Oeste 0 891.1 -0.7 97
2019-01-27 07:00:00 -4.2 3 Este 5 Sudeste 0 891.2 -1 93
2019-01-27 06:00:00 -3.6 3 Este 5 Norte 0 891.3 -1.5 92
2019-01-27 05:00:00 -2.9 4 Este 7 Sudeste 0 891.8 -1.7 93
2019-01-27 04:00:00 -2.8 3 Este 8 Este 0 892.2 -2.2 91
2019-01-27 03:00:00 -2.6 3 Este 8 Sudeste 0 892.8 -1.9 92
2019-01-27 02:00:00 -2.2 3 Este 6 Este 0 893.5 -1.5 91
2019-01-27 01:00:00 -1.7 3 Nordeste 7 Sudeste 0 894.4 -0.9 91
2019-01-27 00:00:00 -1.2 3 Este 4 Sudeste 0 894.7 -0.7 89
2019-01-26 23:00:00 -0.5 2 Nordeste 4 Sudeste 0 895 -0.6 88
2019-01-26 22:00:00 0.5 2 Sudeste 4 Sudeste 0 895.3 -0.1 81
2019-01-26 21:00:00 2.4 2 Este 8 Sudeste 0 895.4 -0.2 75
2019-01-26 20:00:00 4.1 2 Sur 7 Sur 0 895.6 -0.2 65
2019-01-26 19:00:00 7.5 4 Sur 8 Sudoeste 0 895.4 -0.9 50
2019-01-26 18:00:00 11.8 4 Sudoeste 15 Oeste 0 895.6 -1.2 44
2019-01-26 17:00:00 14.9 7 Sudoeste 18 Oeste 0 895.8 -1.7 35
2019-01-26 16:00:00 14.8 10 Sudoeste 21 Oeste 0 896.3 -2.1 36
2019-01-26 15:00:00 14.6 8 Sudoeste 16 Oeste 0 896.8 -2.5 39
2019-01-26 14:00:00 12.7 2 Sur 5 Noroeste 0 897.5 -1.9 49
2019-01-26 13:00:00 9.1 2 Nordeste 6 Este 0 898.4 -1.3 67
2019-01-26 12:00:00 2.9 2 Sudoeste 4 Sudeste 0 899.3 -0.4 98
2019-01-26 11:00:00 -0.9 2 Sur 6 Sudoeste 0 899.4 0.1 100
2019-01-26 10:00:00 -2.7 2 Sudoeste 4 Sudoeste 0 899.7 0.3 99
2019-01-26 09:00:00 -4.4 2 Nordeste 6 Sudoeste 0 899.7 0.2 97
2019-01-26 08:00:00 -4.7 0 Calma 4 Este 0 899.3 -0.3 94
2019-01-26 07:00:00 -4.1 2 Sudoeste 4 Este 0 899.4 -0.5 95
2019-01-26 06:00:00 -3.7 2 Nordeste 6 Nordeste 0 899.5 -0.2 94
2019-01-26 05:00:00 -2.9 0 Calma 8 Este 0 899.6 0 95
2019-01-26 04:00:00 -2.5 2 Sudeste 5 Sudeste 0 899.9 0.1 94
2019-01-26 03:00:00 -1.3 3 Sudeste 8 Este 0 899.7 0.2 93
2019-01-26 02:00:00 -0.3 4 Este 9 Este 0 899.6 0.2 91
2019-01-26 01:00:00 0.9 3 Nordeste 8 Este 0 899.8 0.7 89
2019-01-26 00:00:00 3.4 3 Oeste 18 Noroeste 0 899.5 0.5 84
2019-01-25 23:00:00 3.1 4 Norte 12 Norte 0 899.4 0.6 85
2019-01-25 22:00:00 4.3 6 Oeste 25 Noroeste 0 899.1 1.1 81
2019-01-25 21:00:00 4.1 5 Noroeste 15 Norte 0 899 1.7 84
2019-01-25 20:00:00 4.9 2 Sudeste 15 Noroeste 0 898.8 1.9 78
2019-01-25 19:00:00 6.7 4 Noroeste 21 Noroeste 0 898 1.4 69
2019-01-25 18:00:00 8.8 11 Noroeste 30 Norte 0 897.3 0.7 60
2019-01-25 17:00:00 11.2 12 Norte 28 Norte 0 896.9 0.2 52
2019-01-25 16:00:00 11.5 12 Noroeste 27 Oeste 0 896.6 -0.2 54
2019-01-25 15:00:00 9.6 13 Noroeste 32 Noroeste 0 896.6 -0.3 60
2019-01-25 14:00:00 9.5 14 Noroeste 31 Noroeste 0 896.7 0.3 62
2019-01-25 13:00:00 9 13 Noroeste 35 Norte 0 896.8 0.8 68
2019-01-25 12:00:00 8 12 Norte 41 Noroeste 0 896.9 1.5 72
2019-01-25 11:00:00 7.5 12 Norte 31 Norte 0 896.4 1.5 75
2019-01-25 10:00:00 6.1 8 Noroeste 22 Noroeste 0 896 1.6 79
2019-01-25 09:00:00 5.7 6 Oeste 23 Norte 0 895.4 1.5 80
2019-01-25 08:00:00 5.9 11 Noroeste 27 Noroeste 0 894.9 1.1 79
2019-01-25 07:00:00 5.7 5 Oeste 17 Noroeste 0 894.4 0.6 84
2019-01-25 06:00:00 6.1 9 Noroeste 30 Noroeste 0 893.9 0.1 82
2019-01-25 05:00:00 5.3 5 Noroeste 14 Norte 0 893.8 0.1 86
2019-01-25 04:00:00 5.6 4 Oeste 28 Noroeste 0 893.8 -0.2 84
2019-01-25 03:00:00 5.2 9 Norte 23 Norte 0 893.8 0.2 88
2019-01-25 02:00:00 5.2 9 Noroeste 23 Norte 0 893.7 0.4 88
2019-01-25 01:00:00 4.9 8 Noroeste 22 Noroeste 0 894 1.3 91
2019-01-25 00:00:00 4.6 0 Calma 10 Norte 0 893.6 1 92
2019-01-24 23:00:00 4.8 6 Norte 23 Nordeste 0 893.3 1.1 90
2019-01-24 22:00:00 5 10 Noroeste 21 Norte 0 892.7 0.8 87
2019-01-24 21:00:00 5.1 10 Noroeste 24 Noroeste 0 892.6 1.6 84
2019-01-24 20:00:00 5.1 10 Noroeste 35 Norte 0 892.2 1.9 82
2019-01-24 19:00:00 5.4 14 Noroeste 39 Noroeste 0 891.9 2.3 79
2019-01-24 18:00:00 5.5 13 Norte 44 Noroeste 0 891 1.8 76
2019-01-24 17:00:00 6.1 18 Noroeste 41 Noroeste 0 890.3 1.1 74
2019-01-24 16:00:00 6.6 18 Noroeste 40 Noroeste 0 889.6 0.4 71
2019-01-24 15:00:00 6.4 15 Norte 53 Oeste 0 889.2 -0.2 72
2019-01-24 14:00:00 6.9 17 Noroeste 45 Norte 0 889.2 0.2 71
2019-01-24 13:00:00 6.8 17 Noroeste 42 Norte 0 889.2 0.8 72
2019-01-24 12:00:00 5.9 20 Norte 41 Noroeste 0 889.4 1.7 75
2019-01-24 11:00:00 4.7 16 Norte 36 Norte 0 889 2 83
2019-01-24 10:00:00 4.4 16 Norte 29 Norte 0 888.4 2.2 82
2019-01-24 09:00:00 4 15 Noroeste 33 Noroeste 0.2 887.7 1.7 86
2019-01-24 08:00:00 4.3 13 Noroeste 38 Noroeste 0 887 1.3 84
2019-01-24 07:00:00 4.5 17 Noroeste 40 Noroeste 0 886.2 0.5 83
2019-01-24 06:00:00 4.6 19 Noroeste 49 Oeste 0 886 0.6 81
2019-01-24 05:00:00 5 23 Noroeste 50 Noroeste 0 885.7 0.3 81
2019-01-24 04:00:00 4.9 21 Noroeste 51 Noroeste 0 885.7 0.1 80
2019-01-24 03:00:00 4.6 19 Noroeste 54 Norte 0 885.4 0.1 78
2019-01-24 02:00:00 4.7 15 Noroeste 48 Oeste 0 885.4 0.1 79
2019-01-24 01:00:00 5.1 19 Oeste 53 Noroeste 0 885.6 1.1 76
2019-01-24 00:00:00 5.7 18 Oeste 41 Noroeste 0 885.3 0.8 78